sensor_id;sensor_type;location;lat;lon;timestamp;temperature;humidity
23591;DHT22;11973;52.098;7.582;2022-08-21T00:01:06;18.10;87.40
23591;DHT22;11973;52.098;7.582;2022-08-21T00:03:35;18.10;87.50
23591;DHT22;11973;52.098;7.582;2022-08-21T00:06:02;18.10;87.60
23591;DHT22;11973;52.098;7.582;2022-08-21T00:08:28;18.10;87.70
23591;DHT22;11973;52.098;7.582;2022-08-21T00:10:54;18.00;87.70
23591;DHT22;11973;52.098;7.582;2022-08-21T00:13:20;18.00;87.70
23591;DHT22;11973;52.098;7.582;2022-08-21T00:15:46;18.00;88.00
23591;DHT22;11973;52.098;7.582;2022-08-21T00:18:13;17.90;87.90
23591;DHT22;11973;52.098;7.582;2022-08-21T00:20:39;17.90;88.00
23591;DHT22;11973;52.098;7.582;2022-08-21T00:23:06;17.90;88.10
23591;DHT22;11973;52.098;7.582;2022-08-21T00:25:32;17.90;88.10
23591;DHT22;11973;52.098;7.582;2022-08-21T00:27:58;17.80;88.00
23591;DHT22;11973;52.098;7.582;2022-08-21T00:30:26;17.80;88.10
23591;DHT22;11973;52.098;7.582;2022-08-21T00:32:53;17.70;88.20
23591;DHT22;11973;52.098;7.582;2022-08-21T00:35:23;17.70;88.40
23591;DHT22;11973;52.098;7.582;2022-08-21T00:37:49;17.70;88.50
23591;DHT22;11973;52.098;7.582;2022-08-21T00:40:20;17.70;88.60
23591;DHT22;11973;52.098;7.582;2022-08-21T00:42:47;17.60;88.70
23591;DHT22;11973;52.098;7.582;2022-08-21T00:45:13;17.60;89.50
23591;DHT22;11973;52.098;7.582;2022-08-21T00:47:39;17.60;88.80
23591;DHT22;11973;52.098;7.582;2022-08-21T00:50:08;17.60;88.90
23591;DHT22;11973;52.098;7.582;2022-08-21T00:52:36;17.60;89.10
23591;DHT22;11973;52.098;7.582;2022-08-21T00:55:04;17.60;89.20
23591;DHT22;11973;52.098;7.582;2022-08-21T00:57:38;17.60;90.00
23591;DHT22;11973;52.098;7.582;2022-08-21T01:00:07;17.60;89.40
23591;DHT22;11973;52.098;7.582;2022-08-21T01:02:34;17.60;89.50
23591;DHT22;11973;52.098;7.582;2022-08-21T01:05:00;17.50;89.40
23591;DHT22;11973;52.098;7.582;2022-08-21T01:07:25;17.60;89.50
23591;DHT22;11973;52.098;7.582;2022-08-21T01:09:51;17.60;89.60
23591;DHT22;11973;52.098;7.582;2022-08-21T01:12:18;17.50;89.60
23591;DHT22;11973;52.098;7.582;2022-08-21T01:14:44;17.50;89.70
23591;DHT22;11973;52.098;7.582;2022-08-21T01:17:12;17.50;89.70
23591;DHT22;11973;52.098;7.582;2022-08-21T01:19:39;17.50;89.80
23591;DHT22;11973;52.098;7.582;2022-08-21T01:22:05;17.50;89.80
23591;DHT22;11973;52.098;7.582;2022-08-21T01:24:31;17.50;89.90
23591;DHT22;11973;52.098;7.582;2022-08-21T01:26:59;17.50;90.00
23591;DHT22;11973;52.098;7.582;2022-08-21T01:29:50;17.40;90.00
23591;DHT22;11973;52.098;7.582;2022-08-21T01:32:18;17.40;90.00
23591;DHT22;11973;52.098;7.582;2022-08-21T01:34:45;17.30;90.00
23591;DHT22;11973;52.098;7.582;2022-08-21T01:37:12;17.30;90.00
23591;DHT22;11973;52.098;7.582;2022-08-21T01:39:38;17.20;90.00
23591;DHT22;11973;52.098;7.582;2022-08-21T01:42:05;17.20;90.00
23591;DHT22;11973;52.098;7.582;2022-08-21T01:44:31;17.10;90.00
23591;DHT22;11973;52.098;7.582;2022-08-21T01:46:59;17.10;90.10
23591;DHT22;11973;52.098;7.582;2022-08-21T01:49:26;17.00;90.10
23591;DHT22;11973;52.098;7.582;2022-08-21T01:51:53;16.90;90.10
23591;DHT22;11973;52.098;7.582;2022-08-21T01:54:19;16.90;90.20
23591;DHT22;11973;52.098;7.582;2022-08-21T01:56:47;16.90;90.30
23591;DHT22;11973;52.098;7.582;2022-08-21T01:59:13;16.80;90.30
23591;DHT22;11973;52.098;7.582;2022-08-21T02:01:39;16.80;90.30
23591;DHT22;11973;52.098;7.582;2022-08-21T02:04:06;16.80;90.30
23591;DHT22;11973;52.098;7.582;2022-08-21T02:06:33;16.70;90.30
23591;DHT22;11973;52.098;7.582;2022-08-21T02:08:58;16.70;90.40
23591;DHT22;11973;52.098;7.582;2022-08-21T02:11:24;16.60;90.70
23591;DHT22;11973;52.098;7.582;2022-08-21T02:13:50;16.60;90.80
23591;DHT22;11973;52.098;7.582;2022-08-21T02:16:16;16.60;90.50
23591;DHT22;11973;52.098;7.582;2022-08-21T02:18:41;16.50;90.50
23591;DHT22;11973;52.098;7.582;2022-08-21T02:21:07;16.50;90.50
23591;DHT22;11973;52.098;7.582;2022-08-21T02:23:33;16.50;90.60
23591;DHT22;11973;52.098;7.582;2022-08-21T02:26:01;16.40;90.60
23591;DHT22;11973;52.098;7.582;2022-08-21T02:28:27;16.40;90.60
23591;DHT22;11973;52.098;7.582;2022-08-21T02:30:54;16.40;90.70
23591;DHT22;11973;52.098;7.582;2022-08-21T02:33:22;16.40;90.80
23591;DHT22;11973;52.098;7.582;2022-08-21T02:35:48;16.30;90.70
23591;DHT22;11973;52.098;7.582;2022-08-21T02:38:19;16.30;90.80
23591;DHT22;11973;52.098;7.582;2022-08-21T02:40:48;16.20;90.80
23591;DHT22;11973;52.098;7.582;2022-08-21T02:43:16;16.20;90.80
23591;DHT22;11973;52.098;7.582;2022-08-21T02:45:42;16.30;90.90
23591;DHT22;11973;52.098;7.582;2022-08-21T02:48:11;16.10;90.80
23591;DHT22;11973;52.098;7.582;2022-08-21T02:50:42;16.10;90.80
23591;DHT22;11973;52.098;7.582;2022-08-21T02:53:11;16.10;90.90
23591;DHT22;11973;52.098;7.582;2022-08-21T02:55:39;16.00;90.90
23591;DHT22;11973;52.098;7.582;2022-08-21T02:58:07;16.00;90.90
23591;DHT22;11973;52.098;7.582;2022-08-21T03:00:34;16.00;90.90
23591;DHT22;11973;52.098;7.582;2022-08-21T03:03:01;16.00;90.90
23591;DHT22;11973;52.098;7.582;2022-08-21T03:05:29;16.00;91.00
23591;DHT22;11973;52.098;7.582;2022-08-21T03:07:57;15.90;91.00
23591;DHT22;11973;52.098;7.582;2022-08-21T03:10:24;15.80;91.00
23591;DHT22;11973;52.098;7.582;2022-08-21T03:12:51;15.80;91.00
23591;DHT22;11973;52.098;7.582;2022-08-21T03:15:19;15.80;91.10
23591;DHT22;11973;52.098;7.582;2022-08-21T03:17:46;15.70;91.00
23591;DHT22;11973;52.098;7.582;2022-08-21T03:20:15;15.70;91.10
23591;DHT22;11973;52.098;7.582;2022-08-21T03:22:42;15.70;91.10
23591;DHT22;11973;52.098;7.582;2022-08-21T03:25:08;15.60;91.10
23591;DHT22;11973;52.098;7.582;2022-08-21T03:27:34;15.60;91.10
23591;DHT22;11973;52.098;7.582;2022-08-21T03:30:00;15.60;91.20
23591;DHT22;11973;52.098;7.582;2022-08-21T03:32:26;15.60;91.20
23591;DHT22;11973;52.098;7.582;2022-08-21T03:34:52;15.50;91.20
23591;DHT22;11973;52.098;7.582;2022-08-21T03:37:18;15.50;91.30
23591;DHT22;11973;52.098;7.582;2022-08-21T03:39:44;15.50;91.30
23591;DHT22;11973;52.098;7.582;2022-08-21T03:42:11;15.40;91.20
23591;DHT22;11973;52.098;7.582;2022-08-21T03:44:37;15.40;91.20
23591;DHT22;11973;52.098;7.582;2022-08-21T03:47:03;15.40;91.30
23591;DHT22;11973;52.098;7.582;2022-08-21T03:49:29;15.40;91.30
23591;DHT22;11973;52.098;7.582;2022-08-21T03:51:55;15.40;91.40
23591;DHT22;11973;52.098;7.582;2022-08-21T03:54:21;15.30;91.40
23591;DHT22;11973;52.098;7.582;2022-08-21T03:56:46;15.50;91.50
23591;DHT22;11973;52.098;7.582;2022-08-21T03:59:12;15.20;91.40
23591;DHT22;11973;52.098;7.582;2022-08-21T04:01:38;15.20;91.40
23591;DHT22;11973;52.098;7.582;2022-08-21T04:04:05;15.20;91.40
23591;DHT22;11973;52.098;7.582;2022-08-21T04:06:31;15.20;91.50
23591;DHT22;11973;52.098;7.582;2022-08-21T04:08:57;15.10;91.50
23591;DHT22;11973;52.098;7.582;2022-08-21T04:11:23;15.10;91.50
23591;DHT22;11973;52.098;7.582;2022-08-21T04:13:49;15.10;91.60
23591;DHT22;11973;52.098;7.582;2022-08-21T05:15:39;14.90;92.60
23591;DHT22;11973;52.098;7.582;2022-08-21T05:18:05;14.90;92.30
23591;DHT22;11973;52.098;7.582;2022-08-21T05:20:32;14.90;92.30
23591;DHT22;11973;52.098;7.582;2022-08-21T05:23:00;14.90;92.40
23591;DHT22;11973;52.098;7.582;2022-08-21T05:25:27;15.00;92.40
23591;DHT22;11973;52.098;7.582;2022-08-21T05:27:53;15.00;92.50
23591;DHT22;11973;52.098;7.582;2022-08-21T05:30:19;15.00;92.50
23591;DHT22;11973;52.098;7.582;2022-08-21T05:32:46;15.10;92.60
23591;DHT22;11973;52.098;7.582;2022-08-21T05:35:12;15.10;92.60
23591;DHT22;11973;52.098;7.582;2022-08-21T05:37:39;15.10;92.60
23591;DHT22;11973;52.098;7.582;2022-08-21T05:40:05;15.10;92.70
23591;DHT22;11973;52.098;7.582;2022-08-21T05:42:32;15.10;92.70
23591;DHT22;11973;52.098;7.582;2022-08-21T05:44:58;15.20;92.70
23591;DHT22;11973;52.098;7.582;2022-08-21T05:47:23;15.20;92.80
23591;DHT22;11973;52.098;7.582;2022-08-21T05:49:49;15.30;92.90
23591;DHT22;11973;52.098;7.582;2022-08-21T05:52:19;15.30;92.90
23591;DHT22;11973;52.098;7.582;2022-08-21T05:54:45;15.40;93.00
23591;DHT22;11973;52.098;7.582;2022-08-21T05:57:11;15.40;93.00
23591;DHT22;11973;52.098;7.582;2022-08-21T05:59:37;15.40;93.00
23591;DHT22;11973;52.098;7.582;2022-08-21T06:02:03;15.50;93.10
23591;DHT22;11973;52.098;7.582;2022-08-21T06:04:29;15.50;93.10
23591;DHT22;11973;52.098;7.582;2022-08-21T06:06:55;15.60;93.20
23591;DHT22;11973;52.098;7.582;2022-08-21T06:09:21;15.60;93.20
23591;DHT22;11973;52.098;7.582;2022-08-21T06:11:46;15.70;93.20
23591;DHT22;11973;52.098;7.582;2022-08-21T06:14:15;15.90;93.30
23591;DHT22;11973;52.098;7.582;2022-08-21T06:16:42;15.90;93.30
23591;DHT22;11973;52.098;7.582;2022-08-21T06:19:07;15.90;93.40
23591;DHT22;11973;52.098;7.582;2022-08-21T06:21:33;16.00;93.50
23591;DHT22;11973;52.098;7.582;2022-08-21T06:23:59;16.00;93.50
23591;DHT22;11973;52.098;7.582;2022-08-21T06:26:24;16.10;93.60
23591;DHT22;11973;52.098;7.582;2022-08-21T06:28:50;16.20;93.60
23591;DHT22;11973;52.098;7.582;2022-08-21T06:31:19;16.30;93.70
23591;DHT22;11973;52.098;7.582;2022-08-21T06:33:45;16.50;93.80
23591;DHT22;11973;52.098;7.582;2022-08-21T06:36:11;16.40;93.80
23591;DHT22;11973;52.098;7.582;2022-08-21T06:38:38;16.50;93.80
23591;DHT22;11973;52.098;7.582;2022-08-21T06:41:04;16.60;93.90
23591;DHT22;11973;52.098;7.582;2022-08-21T06:43:30;16.70;93.90
23591;DHT22;11973;52.098;7.582;2022-08-21T06:45:56;16.80;93.90
23591;DHT22;11973;52.098;7.582;2022-08-21T06:48:22;16.90;94.00
23591;DHT22;11973;52.098;7.582;2022-08-21T06:50:48;16.90;94.00
23591;DHT22;11973;52.098;7.582;2022-08-21T06:53:17;17.00;94.00
23591;DHT22;11973;52.098;7.582;2022-08-21T06:55:43;17.10;94.00
23591;DHT22;11973;52.098;7.582;2022-08-21T06:58:11;17.20;94.00
23591;DHT22;11973;52.098;7.582;2022-08-21T07:00:43;17.30;94.00
23591;DHT22;11973;52.098;7.582;2022-08-21T07:03:27;17.40;94.00
23591;DHT22;11973;52.098;7.582;2022-08-21T07:05:53;17.50;94.10
23591;DHT22;11973;52.098;7.582;2022-08-21T07:08:20;17.60;94.10
23591;DHT22;11973;52.098;7.582;2022-08-21T07:10:47;17.70;94.10
23591;DHT22;11973;52.098;7.582;2022-08-21T07:13:14;17.70;94.10
23591;DHT22;11973;52.098;7.582;2022-08-21T07:15:40;17.80;94.00
23591;DHT22;11973;52.098;7.582;2022-08-21T07:18:06;17.90;94.00
23591;DHT22;11973;52.098;7.582;2022-08-21T07:20:33;18.00;94.10
23591;DHT22;11973;52.098;7.582;2022-08-21T07:23:02;18.00;94.10
23591;DHT22;11973;52.098;7.582;2022-08-21T07:25:28;18.10;94.10
23591;DHT22;11973;52.098;7.582;2022-08-21T07:27:54;18.20;94.00
23591;DHT22;11973;52.098;7.582;2022-08-21T07:30:21;18.30;94.00
23591;DHT22;11973;52.098;7.582;2022-08-21T07:32:47;18.40;94.00
23591;DHT22;11973;52.098;7.582;2022-08-21T07:35:15;18.40;93.90
23591;DHT22;11973;52.098;7.582;2022-08-21T07:37:41;18.50;93.90
23591;DHT22;11973;52.098;7.582;2022-08-21T07:40:07;18.60;93.80
23591;DHT22;11973;52.098;7.582;2022-08-21T07:42:33;18.60;93.70
23591;DHT22;11973;52.098;7.582;2022-08-21T07:44:59;18.70;93.60
23591;DHT22;11973;52.098;7.582;2022-08-21T07:47:24;18.80;93.70
23591;DHT22;11973;52.098;7.582;2022-08-21T07:49:50;18.80;93.60
23591;DHT22;11973;52.098;7.582;2022-08-21T07:52:16;18.90;93.50
23591;DHT22;11973;52.098;7.582;2022-08-21T07:54:42;19.00;93.50
23591;DHT22;11973;52.098;7.582;2022-08-21T07:57:07;19.00;93.40
23591;DHT22;11973;52.098;7.582;2022-08-21T07:59:33;19.10;93.40
23591;DHT22;11973;52.098;7.582;2022-08-21T08:01:59;19.20;93.40
23591;DHT22;11973;52.098;7.582;2022-08-21T08:04:25;19.20;93.30
23591;DHT22;11973;52.098;7.582;2022-08-21T08:06:50;19.30;93.30
23591;DHT22;11973;52.098;7.582;2022-08-21T08:09:16;19.30;93.30
23591;DHT22;11973;52.098;7.582;2022-08-21T08:11:42;19.40;93.20
23591;DHT22;11973;52.098;7.582;2022-08-21T08:14:09;19.40;93.20
23591;DHT22;11973;52.098;7.582;2022-08-21T08:16:35;19.50;93.20
23591;DHT22;11973;52.098;7.582;2022-08-21T08:19:01;19.60;93.20
23591;DHT22;11973;52.098;7.582;2022-08-21T08:21:27;19.60;93.10
23591;DHT22;11973;52.098;7.582;2022-08-21T08:23:53;19.70;93.10
23591;DHT22;11973;52.098;7.582;2022-08-21T08:26:19;19.80;93.10
23591;DHT22;11973;52.098;7.582;2022-08-21T08:28:44;19.80;93.00
23591;DHT22;11973;52.098;7.582;2022-08-21T08:31:13;19.90;93.10
23591;DHT22;11973;52.098;7.582;2022-08-21T08:33:39;19.90;93.00
23591;DHT22;11973;52.098;7.582;2022-08-21T08:36:11;20.00;93.00
23591;DHT22;11973;52.098;7.582;2022-08-21T08:38:37;20.00;92.90
23591;DHT22;11973;52.098;7.582;2022-08-21T08:41:06;20.10;92.90
23591;DHT22;11973;52.098;7.582;2022-08-21T08:43:34;20.10;92.90
23591;DHT22;11973;52.098;7.582;2022-08-21T08:46:16;20.20;92.90
23591;DHT22;11973;52.098;7.582;2022-08-21T08:49:00;20.30;92.80
23591;DHT22;11973;52.098;7.582;2022-08-21T08:54:25;20.40;92.50
23591;DHT22;11973;52.098;7.582;2022-08-21T08:56:52;20.50;92.50
23591;DHT22;11973;52.098;7.582;2022-08-21T08:59:25;20.60;92.60
23591;DHT22;11973;52.098;7.582;2022-08-21T09:01:52;20.70;92.60
23591;DHT22;11973;52.098;7.582;2022-08-21T09:04:24;20.80;92.60
23591;DHT22;11973;52.098;7.582;2022-08-21T09:06:56;20.90;92.50
23591;DHT22;11973;52.098;7.582;2022-08-21T09:12:11;21.10;92.30
23591;DHT22;11973;52.098;7.582;2022-08-21T09:20:27;21.30;91.90
23591;DHT22;11973;52.098;7.582;2022-08-21T09:25:26;21.50;91.90
23591;DHT22;11973;52.098;7.582;2022-08-21T09:27:53;21.60;91.80
23591;DHT22;11973;52.098;7.582;2022-08-21T09:30:25;21.70;91.70
23591;DHT22;11973;52.098;7.582;2022-08-21T09:32:51;21.90;91.60
23591;DHT22;11973;52.098;7.582;2022-08-21T09:35:19;22.00;91.50
23591;DHT22;11973;52.098;7.582;2022-08-21T09:43:00;22.20;90.90
23591;DHT22;11973;52.098;7.582;2022-08-21T09:45:27;22.20;90.50
23591;DHT22;11973;52.098;7.582;2022-08-21T09:47:53;22.10;90.50
23591;DHT22;11973;52.098;7.582;2022-08-21T09:50:25;22.10;90.10
23591;DHT22;11973;52.098;7.582;2022-08-21T09:52:56;22.20;90.10
23591;DHT22;11973;52.098;7.582;2022-08-21T09:58:11;22.40;90.10
23591;DHT22;11973;52.098;7.582;2022-08-21T10:00:37;22.40;89.50
23591;DHT22;11973;52.098;7.582;2022-08-21T10:03:18;22.40;88.70
23591;DHT22;11973;52.098;7.582;2022-08-21T10:06:00;22.40;87.90
23591;DHT22;11973;52.098;7.582;2022-08-21T10:08:32;22.40;87.70
23591;DHT22;11973;52.098;7.582;2022-08-21T10:11:25;22.40;87.90
23591;DHT22;11973;52.098;7.582;2022-08-21T10:19:39;22.30;86.40
23591;DHT22;11973;52.098;7.582;2022-08-21T10:25:00;22.30;86.00
23591;DHT22;11973;52.098;7.582;2022-08-21T10:38:44;22.60;85.20
23591;DHT22;11973;52.098;7.582;2022-08-21T10:47:11;22.70;84.00
23591;DHT22;11973;52.098;7.582;2022-08-21T10:55:16;22.80;82.70
23591;DHT22;11973;52.098;7.582;2022-08-21T10:58:34;22.90;82.50
23591;DHT22;11973;52.098;7.582;2022-08-21T11:00:40;22.90;82.30
23591;DHT22;11973;52.098;7.582;2022-08-21T11:03:13;23.00;81.70
23591;DHT22;11973;52.098;7.582;2022-08-21T11:05:47;23.00;81.10
23591;DHT22;11973;52.098;7.582;2022-08-21T11:08:21;23.00;80.50
23591;DHT22;11973;52.098;7.582;2022-08-21T11:11:08;23.00;80.20
23591;DHT22;11973;52.098;7.582;2022-08-21T11:13:44;23.10;79.70
23591;DHT22;11973;52.098;7.582;2022-08-21T11:24:23;23.20;78.00
23591;DHT22;11973;52.098;7.582;2022-08-21T11:29:38;23.30;77.70
23591;DHT22;11973;52.098;7.582;2022-08-21T11:34:44;23.40;77.50
23591;DHT22;11973;52.098;7.582;2022-08-21T11:45:51;23.70;76.20
23591;DHT22;11973;52.098;7.582;2022-08-21T11:50:54;23.90;76.00
23591;DHT22;11973;52.098;7.582;2022-08-21T11:53:32;23.90;75.50
23591;DHT22;11973;52.098;7.582;2022-08-21T11:56:26;24.00;75.10
23591;DHT22;11973;52.098;7.582;2022-08-21T11:58:59;24.10;74.80
23591;DHT22;11973;52.098;7.582;2022-08-21T12:01:33;24.20;74.70
23591;DHT22;11973;52.098;7.582;2022-08-21T12:06:34;24.30;74.20
23591;DHT22;11973;52.098;7.582;2022-08-21T12:09:29;24.30;73.50
23591;DHT22;11973;52.098;7.582;2022-08-21T12:14:46;24.50;73.00
23591;DHT22;11973;52.098;7.582;2022-08-21T12:17:23;24.50;72.40
23591;DHT22;11973;52.098;7.582;2022-08-21T12:20:18;24.60;72.10
23591;DHT22;11973;52.098;7.582;2022-08-21T12:23:02;24.70;71.60
23591;DHT22;11973;52.098;7.582;2022-08-21T12:25:37;24.80;71.50
23591;DHT22;11973;52.098;7.582;2022-08-21T12:28:08;24.90;71.10
23591;DHT22;11973;52.098;7.582;2022-08-21T12:30:38;25.00;70.60
23591;DHT22;11973;52.098;7.582;2022-08-21T12:35:45;25.10;69.90
23591;DHT22;11973;52.098;7.582;2022-08-21T12:38:28;25.30;69.80
23591;DHT22;11973;52.098;7.582;2022-08-21T12:41:04;25.40;69.00
23591;DHT22;11973;52.098;7.582;2022-08-21T12:43:43;25.40;68.70
23591;DHT22;11973;52.098;7.582;2022-08-21T12:46:23;25.50;68.50
23591;DHT22;11973;52.098;7.582;2022-08-21T12:49:13;25.60;68.00
23591;DHT22;11973;52.098;7.582;2022-08-21T12:51:50;25.70;67.60
23591;DHT22;11973;52.098;7.582;2022-08-21T12:54:29;25.80;67.30
23591;DHT22;11973;52.098;7.582;2022-08-21T12:57:01;25.90;67.10
23591;DHT22;11973;52.098;7.582;2022-08-21T12:59:28;26.00;67.00
23591;DHT22;11973;52.098;7.582;2022-08-21T13:01:54;26.10;67.40
23591;DHT22;11973;52.098;7.582;2022-08-21T13:04:36;26.20;66.30
23591;DHT22;11973;52.098;7.582;2022-08-21T13:07:07;26.20;66.10
23591;DHT22;11973;52.098;7.582;2022-08-21T13:09:40;26.30;65.70
23591;DHT22;11973;52.098;7.582;2022-08-21T13:12:08;26.30;65.10
23591;DHT22;11973;52.098;7.582;2022-08-21T13:14:44;26.30;64.80
23591;DHT22;11973;52.098;7.582;2022-08-21T13:17:14;26.30;64.50
23591;DHT22;11973;52.098;7.582;2022-08-21T13:19:40;26.30;64.50
23591;DHT22;11973;52.098;7.582;2022-08-21T13:22:13;26.40;64.20
23591;DHT22;11973;52.098;7.582;2022-08-21T13:24:39;26.50;64.00
23591;DHT22;11973;52.098;7.582;2022-08-21T13:27:26;26.60;63.70
23591;DHT22;11973;52.098;7.582;2022-08-21T13:30:14;26.70;63.00
23591;DHT22;11973;52.098;7.582;2022-08-21T13:32:45;26.70;59.70
23591;DHT22;11973;52.098;7.582;2022-08-21T13:35:23;26.80;60.30
23591;DHT22;11973;52.098;7.582;2022-08-21T13:37:51;26.90;60.20
23591;DHT22;11973;52.098;7.582;2022-08-21T13:40:23;26.90;60.40
23591;DHT22;11973;52.098;7.582;2022-08-21T13:42:49;27.00;60.20
23591;DHT22;11973;52.098;7.582;2022-08-21T13:45:25;27.00;59.80
23591;DHT22;11973;52.098;7.582;2022-08-21T13:47:53;27.00;59.70
23591;DHT22;11973;52.098;7.582;2022-08-21T13:50:21;27.10;59.80
23591;DHT22;11973;52.098;7.582;2022-08-21T13:53:00;27.20;59.70
23591;DHT22;11973;52.098;7.582;2022-08-21T13:55:39;27.30;59.30
23591;DHT22;11973;52.098;7.582;2022-08-21T13:58:07;27.40;59.10
23591;DHT22;11973;52.098;7.582;2022-08-21T14:00:43;27.50;59.00
23591;DHT22;11973;52.098;7.582;2022-08-21T14:03:10;27.60;58.80
23591;DHT22;11973;52.098;7.582;2022-08-21T14:05:44;27.60;58.80
23591;DHT22;11973;52.098;7.582;2022-08-21T14:08:31;27.50;58.60
23591;DHT22;11973;52.098;7.582;2022-08-21T14:10:58;27.50;58.50
23591;DHT22;11973;52.098;7.582;2022-08-21T14:13:41;27.60;58.30
23591;DHT22;11973;52.098;7.582;2022-08-21T14:16:29;27.70;58.10
23591;DHT22;11973;52.098;7.582;2022-08-21T14:21:40;28.10;58.00
23591;DHT22;11973;52.098;7.582;2022-08-21T14:26:36;28.90;58.50
23591;DHT22;11973;52.098;7.582;2022-08-21T14:29:07;29.40;58.80
23591;DHT22;11973;52.098;7.582;2022-08-21T14:31:33;30.00;58.40
23591;DHT22;11973;52.098;7.582;2022-08-21T14:34:00;30.50;57.90
23591;DHT22;11973;52.098;7.582;2022-08-21T14:36:26;30.90;57.20
23591;DHT22;11973;52.098;7.582;2022-08-21T14:38:52;31.30;56.90
23591;DHT22;11973;52.098;7.582;2022-08-21T14:41:22;31.60;56.00
23591;DHT22;11973;52.098;7.582;2022-08-21T14:43:49;31.70;55.30
23591;DHT22;11973;52.098;7.582;2022-08-21T14:46:21;32.00;54.70
23591;DHT22;11973;52.098;7.582;2022-08-21T14:48:48;32.30;54.90
23591;DHT22;11973;52.098;7.582;2022-08-21T14:51:14;32.60;54.30
23591;DHT22;11973;52.098;7.582;2022-08-21T14:53:40;33.10;54.10
23591;DHT22;11973;52.098;7.582;2022-08-21T14:56:06;33.60;53.60
23591;DHT22;11973;52.098;7.582;2022-08-21T14:58:38;34.10;52.50
23591;DHT22;11973;52.098;7.582;2022-08-21T15:01:08;34.40;51.80
23591;DHT22;11973;52.098;7.582;2022-08-21T15:03:35;34.60;51.50
23591;DHT22;11973;52.098;7.582;2022-08-21T15:06:02;34.80;50.80
23591;DHT22;11973;52.098;7.582;2022-08-21T15:08:28;35.10;51.00
23591;DHT22;11973;52.098;7.582;2022-08-21T15:10:54;35.50;49.80
23591;DHT22;11973;52.098;7.582;2022-08-21T15:13:21;35.70;49.30
23591;DHT22;11973;52.098;7.582;2022-08-21T15:15:49;36.00;48.60
23591;DHT22;11973;52.098;7.582;2022-08-21T15:18:16;36.10;47.50
23591;DHT22;11973;52.098;7.582;2022-08-21T15:20:42;35.70;46.30
23591;DHT22;11973;52.098;7.582;2022-08-21T15:23:08;35.20;45.70
23591;DHT22;11973;52.098;7.582;2022-08-21T15:25:35;35.10;46.30
23591;DHT22;11973;52.098;7.582;2022-08-21T15:28:02;34.90;45.70
23591;DHT22;11973;52.098;7.582;2022-08-21T15:30:29;34.80;45.80
23591;DHT22;11973;52.098;7.582;2022-08-21T15:32:56;34.50;45.40
23591;DHT22;11973;52.098;7.582;2022-08-21T15:35:22;34.40;45.70
23591;DHT22;11973;52.098;7.582;2022-08-21T15:37:47;34.50;45.60
23591;DHT22;11973;52.098;7.582;2022-08-21T15:40:13;34.40;45.30
23591;DHT22;11973;52.098;7.582;2022-08-21T15:42:40;34.20;44.80
23591;DHT22;11973;52.098;7.582;2022-08-21T15:45:07;34.00;44.80
23591;DHT22;11973;52.098;7.582;2022-08-21T15:47:35;34.00;45.00
23591;DHT22;11973;52.098;7.582;2022-08-21T15:50:05;34.20;45.00
23591;DHT22;11973;52.098;7.582;2022-08-21T15:52:31;34.30;44.50
23591;DHT22;11973;52.098;7.582;2022-08-21T15:54:56;34.20;44.30
23591;DHT22;11973;52.098;7.582;2022-08-21T15:57:23;33.90;44.00
23591;DHT22;11973;52.098;7.582;2022-08-21T15:59:58;33.50;44.20
23591;DHT22;11973;52.098;7.582;2022-08-21T16:02:39;33.20;44.10
23591;DHT22;11973;52.098;7.582;2022-08-21T16:05:07;32.70;44.10
23591;DHT22;11973;52.098;7.582;2022-08-21T16:07:35;32.30;44.30
23591;DHT22;11973;52.098;7.582;2022-08-21T16:10:01;31.90;44.50
23591;DHT22;11973;52.098;7.582;2022-08-21T16:12:31;31.60;44.60
23591;DHT22;11973;52.098;7.582;2022-08-21T16:14:58;31.30;44.80
23591;DHT22;11973;52.098;7.582;2022-08-21T16:17:28;31.00;44.90
23591;DHT22;11973;52.098;7.582;2022-08-21T16:19:55;30.80;45.10
23591;DHT22;11973;52.098;7.582;2022-08-21T16:22:21;30.60;45.30
23591;DHT22;11973;52.098;7.582;2022-08-21T16:24:47;30.40;45.40
23591;DHT22;11973;52.098;7.582;2022-08-21T16:27:13;30.20;45.60
23591;DHT22;11973;52.098;7.582;2022-08-21T16:29:39;30.10;45.80
23591;DHT22;11973;52.098;7.582;2022-08-21T16:32:05;29.90;46.00
23591;DHT22;11973;52.098;7.582;2022-08-21T16:34:31;29.80;46.10
23591;DHT22;11973;52.098;7.582;2022-08-21T16:36:57;29.70;46.20
23591;DHT22;11973;52.098;7.582;2022-08-21T16:39:22;29.60;46.30
23591;DHT22;11973;52.098;7.582;2022-08-21T16:41:48;29.50;46.20
23591;DHT22;11973;52.098;7.582;2022-08-21T16:44:15;29.40;46.40
23591;DHT22;11973;52.098;7.582;2022-08-21T16:46:41;29.30;46.50
23591;DHT22;11973;52.098;7.582;2022-08-21T16:49:07;29.20;46.60
23591;DHT22;11973;52.098;7.582;2022-08-21T16:51:35;29.10;46.80
23591;DHT22;11973;52.098;7.582;2022-08-21T16:54:01;29.00;46.80
23591;DHT22;11973;52.098;7.582;2022-08-21T16:56:28;28.90;46.90
23591;DHT22;11973;52.098;7.582;2022-08-21T16:58:55;28.80;47.10
23591;DHT22;11973;52.098;7.582;2022-08-21T17:01:25;28.60;47.00
23591;DHT22;11973;52.098;7.582;2022-08-21T17:03:53;28.50;47.30
23591;DHT22;11973;52.098;7.582;2022-08-21T17:06:20;28.30;47.30
23591;DHT22;11973;52.098;7.582;2022-08-21T17:08:46;28.20;47.50
23591;DHT22;11973;52.098;7.582;2022-08-21T17:11:37;28.00;47.50
23591;DHT22;11973;52.098;7.582;2022-08-21T17:14:08;27.90;47.70
23591;DHT22;11973;52.098;7.582;2022-08-21T17:16:34;27.70;47.80
23591;DHT22;11973;52.098;7.582;2022-08-21T17:19:01;27.60;47.90
23591;DHT22;11973;52.098;7.582;2022-08-21T17:21:26;27.40;48.00
23591;DHT22;11973;52.098;7.582;2022-08-21T17:23:52;27.30;48.10
23591;DHT22;11973;52.098;7.582;2022-08-21T17:26:18;27.20;48.40
23591;DHT22;11973;52.098;7.582;2022-08-21T17:28:44;27.00;48.50
23591;DHT22;11973;52.098;7.582;2022-08-21T17:31:11;27.00;48.70
23591;DHT22;11973;52.098;7.582;2022-08-21T17:33:46;26.90;48.90
23591;DHT22;11973;52.098;7.582;2022-08-21T17:36:20;26.70;49.00
23591;DHT22;11973;52.098;7.582;2022-08-21T17:38:46;26.60;49.20
23591;DHT22;11973;52.098;7.582;2022-08-21T17:41:12;26.50;49.50
23591;DHT22;11973;52.098;7.582;2022-08-21T17:43:39;26.50;49.80
23591;DHT22;11973;52.098;7.582;2022-08-21T17:46:05;26.40;49.90
23591;DHT22;11973;52.098;7.582;2022-08-21T17:48:30;26.30;50.20
23591;DHT22;11973;52.098;7.582;2022-08-21T17:50:56;26.20;50.20
23591;DHT22;11973;52.098;7.582;2022-08-21T17:53:22;26.20;50.50
23591;DHT22;11973;52.098;7.582;2022-08-21T17:55:48;26.10;50.70
23591;DHT22;11973;52.098;7.582;2022-08-21T17:58:14;26.00;50.90
23591;DHT22;11973;52.098;7.582;2022-08-21T18:00:41;25.90;51.00
23591;DHT22;11973;52.098;7.582;2022-08-21T18:03:10;25.90;51.20
23591;DHT22;11973;52.098;7.582;2022-08-21T18:05:41;25.80;51.60
23591;DHT22;11973;52.098;7.582;2022-08-21T18:08:07;25.70;51.60
23591;DHT22;11973;52.098;7.582;2022-08-21T18:10:33;25.60;51.80